createdAt,value
2019-01-16T00:00:49.197Z,301.80
2019-01-16T00:01:49.213Z,300.00
2019-01-16T00:02:49.174Z,298.40
2019-01-16T00:03:49.166Z,298.70
2019-01-16T00:04:49.157Z,295.10
2019-01-16T00:05:49.141Z,292.70
2019-01-16T00:06:49.146Z,288.00
2019-01-16T00:07:49.125Z,287.40
2019-01-16T00:08:49.109Z,287.90
2019-01-16T00:09:49.096Z,285.60
2019-01-16T00:10:49.086Z,281.90
2019-01-16T00:11:49.114Z,284.40
2019-01-16T00:12:49.063Z,286.70
2019-01-16T00:13:49.064Z,280.10
2019-01-16T00:14:49.041Z,278.40
2019-01-16T00:15:49.030Z,279.00
2019-01-16T00:16:49.022Z,271.80
2019-01-16T00:17:49.025Z,275.00
2019-01-16T00:18:48.996Z,271.90
2019-01-16T00:19:48.989Z,267.20
2019-01-16T00:20:48.975Z,267.40
2019-01-16T00:21:48.964Z,266.90
2019-01-16T00:22:48.968Z,266.10
2019-01-16T00:23:48.941Z,262.60
2019-01-16T00:24:48.931Z,266.70
2019-01-16T00:25:48.927Z,259.10
2019-01-16T00:26:48.910Z,257.90
2019-01-16T00:27:48.914Z,258.50
2019-01-16T00:28:48.885Z,257.30
2019-01-16T00:29:48.875Z,255.50
2019-01-16T00:30:48.861Z,253.30
2019-01-16T00:31:48.866Z,253.30
2019-01-16T00:32:48.858Z,251.80
2019-01-16T00:33:48.831Z,246.50
2019-01-16T00:34:48.819Z,248.40
2019-01-16T00:35:48.808Z,243.50
2019-01-16T00:36:48.796Z,242.00
2019-01-16T00:37:48.806Z,242.70
2019-01-16T00:38:48.774Z,245.20
2019-01-16T00:39:48.763Z,238.60
2019-01-16T00:40:48.751Z,243.40
2019-01-16T00:41:48.742Z,237.10
2019-01-16T00:42:48.761Z,238.50
2019-01-16T00:43:48.726Z,235.80
2019-01-16T00:44:48.710Z,237.10
2019-01-16T00:45:48.697Z,236.30
2019-01-16T00:46:48.684Z,237.30
2019-01-16T00:47:48.673Z,229.70
2019-01-16T00:48:48.677Z,232.90
2019-01-16T00:49:48.659Z,225.20
2019-01-16T00:50:48.640Z,228.50
2019-01-16T00:51:48.628Z,220.90
2019-01-16T00:52:48.618Z,223.40
2019-01-16T00:53:48.621Z,220.70
2019-01-16T00:54:48.597Z,221.60
2019-01-16T00:55:48.596Z,216.20
2019-01-16T00:56:48.573Z,218.50
2019-01-16T00:57:48.562Z,214.20
2019-01-16T00:58:48.567Z,215.10
2019-01-16T00:59:48.538Z,214.00
2019-01-16T01:00:48.528Z,209.60
2019-01-16T01:01:48.525Z,207.20
2019-01-16T01:02:48.505Z,208.20
2019-01-16T01:03:48.510Z,204.90
2019-01-16T01:04:48.482Z,204.90
2019-01-16T01:05:48.472Z,204.70
2019-01-16T01:06:48.460Z,201.20
2019-01-16T01:07:48.462Z,199.90
2019-01-16T01:08:48.454Z,199.20
2019-01-16T01:09:48.428Z,199.00
2019-01-16T01:10:48.416Z,201.20
2019-01-16T01:11:48.406Z,193.30
2019-01-16T01:12:48.393Z,196.80
2019-01-16T01:13:48.409Z,192.30
2019-01-16T01:14:48.375Z,193.40
2019-01-16T01:15:48.359Z,192.20
2019-01-16T01:16:48.347Z,189.40
2019-01-16T01:17:48.337Z,189.60
2019-01-16T01:18:48.365Z,191.80
2019-01-16T01:19:48.324Z,188.10
2019-01-16T01:20:48.304Z,186.60
2019-01-16T01:21:48.296Z,190.20
2019-01-16T01:22:48.283Z,190.10
2019-01-16T01:23:48.270Z,183.90
2019-01-16T01:24:48.276Z,183.90
2019-01-16T01:25:48.259Z,182.60
2019-01-16T01:26:48.239Z,178.70
2019-01-16T01:27:48.226Z,181.20
2019-01-16T01:28:48.215Z,180.00
2019-01-16T01:29:48.220Z,178.60
2019-01-16T01:30:48.193Z,177.00
2019-01-16T01:31:48.191Z,176.40
2019-01-16T01:32:48.170Z,176.60
2019-01-16T01:33:48.158Z,175.50
2019-01-16T01:34:48.166Z,174.30
2019-01-16T01:35:48.137Z,173.70
2019-01-16T01:36:48.128Z,170.80
2019-01-16T01:37:48.127Z,171.10
2019-01-16T01:38:48.104Z,168.80
2019-01-16T01:39:48.110Z,169.10
2019-01-16T01:40:48.081Z,170.70
2019-01-16T01:41:48.068Z,168.50
2019-01-16T01:42:48.058Z,168.00
2019-01-16T01:43:48.059Z,164.50
2019-01-16T01:44:48.054Z,167.20
2019-01-16T01:45:48.024Z,165.50
2019-01-16T01:46:48.013Z,165.40
2019-01-16T01:47:48.003Z,164.70
2019-01-16T01:48:48.001Z,163.00
2019-01-16T01:49:47.980Z,161.20
2019-01-16T01:50:47.988Z,164.30
2019-01-16T01:51:47.958Z,160.10
2019-01-16T01:52:47.948Z,159.20
2019-01-16T01:53:47.936Z,160.40
2019-01-16T01:54:47.935Z,159.50
2019-01-16T01:55:47.935Z,159.10
2019-01-16T01:56:47.902Z,156.70
2019-01-16T01:57:47.894Z,157.30
2019-01-16T01:58:47.882Z,156.60
2019-01-16T01:59:47.871Z,155.80
2019-01-16T02:00:47.886Z,151.90
2019-01-16T02:01:47.849Z,153.30
2019-01-16T02:02:47.836Z,151.10
2019-01-16T02:03:47.825Z,151.10
2019-01-16T02:04:47.817Z,147.70
2019-01-16T02:05:47.817Z,149.30
2019-01-16T02:06:47.813Z,147.40
2019-01-16T02:07:47.779Z,147.40
2019-01-16T02:08:47.837Z,146.30
2019-01-16T02:09:47.758Z,147.50
2019-01-16T02:10:47.761Z,144.50
2019-01-16T02:11:47.734Z,143.70
2019-01-16T02:12:47.731Z,142.30
2019-01-16T02:13:47.713Z,142.60
2019-01-16T02:14:47.700Z,142.90
2019-01-16T02:15:47.718Z,140.50
2019-01-16T02:16:47.685Z,140.00
2019-01-16T02:17:47.675Z,139.00
2019-01-16T02:18:47.677Z,137.10
2019-01-16T02:19:47.644Z,136.90
2019-01-16T02:20:47.634Z,136.30
2019-01-16T02:21:47.638Z,135.10
2019-01-16T02:22:47.614Z,133.20
2019-01-16T02:23:47.601Z,132.70
2019-01-16T02:24:47.598Z,132.50
2019-01-16T02:25:47.577Z,134.40
2019-01-16T02:26:47.589Z,132.60
2019-01-16T02:27:47.558Z,132.40
2019-01-16T02:28:47.546Z,132.70
2019-01-16T02:29:47.555Z,131.00
2019-01-16T02:30:47.538Z,127.10
2019-01-16T02:31:47.546Z,131.40
2019-01-16T02:32:47.500Z,128.70
2019-01-16T02:33:47.497Z,129.40
2019-01-16T02:34:47.484Z,128.00
2019-01-16T02:35:47.466Z,126.70
2019-01-16T02:36:47.465Z,127.40
2019-01-16T02:37:47.462Z,126.10
2019-01-16T02:38:47.439Z,126.40
2019-01-16T02:39:47.431Z,123.00
2019-01-16T02:40:47.413Z,124.90
2019-01-16T02:41:47.406Z,122.40
2019-01-16T02:42:47.417Z,124.10
2019-01-16T02:43:47.379Z,124.00
2019-01-16T02:44:47.369Z,123.50
2019-01-16T02:45:47.357Z,121.30
2019-01-16T02:46:47.345Z,121.60
2019-01-16T02:47:47.367Z,119.80
2019-01-16T02:48:55.658Z,121.00
2019-01-16T02:49:48.309Z,120.50
2019-01-16T02:50:47.298Z,118.50
2019-01-16T02:51:47.287Z,117.10
2019-01-16T02:52:47.277Z,119.00
2019-01-16T02:53:47.288Z,116.40
2019-01-16T02:54:47.273Z,115.80
2019-01-16T02:55:47.241Z,114.40
2019-01-16T02:56:47.230Z,113.20
2019-01-16T02:57:47.220Z,111.90
2019-01-16T02:58:47.225Z,113.40
2019-01-16T02:59:47.196Z,115.80
2019-01-16T03:00:47.201Z,112.00
2019-01-16T03:01:47.174Z,110.60
2019-01-16T03:02:47.165Z,110.50
2019-01-16T03:03:47.171Z,109.10
2019-01-16T03:04:47.143Z,107.30
2019-01-16T03:05:47.155Z,108.70
2019-01-16T03:06:47.124Z,107.50
2019-01-16T03:07:47.106Z,109.40
2019-01-16T03:08:47.110Z,108.20
2019-01-16T03:09:47.083Z,105.80
2019-01-16T03:10:47.072Z,105.40
2019-01-16T03:11:47.059Z,104.70
2019-01-16T03:12:47.054Z,105.40
2019-01-16T03:13:47.093Z,103.50
2019-01-16T03:14:47.028Z,102.10
2019-01-16T03:15:47.020Z,103.30
2019-01-16T03:16:47.004Z,102.80
2019-01-16T03:17:46.995Z,102.60
2019-01-16T03:18:47.031Z,101.70
2019-01-16T03:19:46.975Z,100.70
2019-01-16T03:20:46.957Z,100.90
2019-01-16T03:21:46.946Z,98.20
2019-01-16T03:22:46.939Z,98.10
2019-01-16T03:23:46.939Z,98.90
2019-01-16T03:24:46.924Z,98.90
2019-01-16T03:25:46.902Z,99.50
2019-01-16T03:26:46.890Z,99.00
2019-01-16T03:27:46.881Z,97.40
2019-01-16T03:28:46.887Z,97.40
2019-01-16T03:29:46.864Z,93.80
2019-01-16T03:30:46.877Z,93.10
2019-01-16T03:31:46.842Z,93.90
2019-01-16T03:32:46.827Z,94.00
2019-01-16T03:33:46.830Z,92.20
2019-01-16T03:34:46.804Z,92.40
2019-01-16T03:35:46.790Z,92.90
2019-01-16T03:36:46.787Z,92.50
2019-01-16T03:37:46.771Z,91.00
2019-01-16T03:38:46.781Z,91.80
2019-01-16T03:39:46.751Z,89.30
2019-01-16T03:40:46.733Z,90.60
2019-01-16T03:41:46.722Z,87.30
2019-01-16T03:42:46.725Z,88.80
2019-01-16T03:43:46.700Z,87.90
2019-01-16T03:44:46.711Z,87.50
2019-01-16T03:45:46.676Z,87.80
2019-01-16T03:46:46.668Z,86.30
2019-01-16T03:47:46.656Z,86.50
2019-01-16T03:48:46.654Z,87.00
2019-01-16T03:49:46.649Z,87.70
2019-01-16T03:50:46.627Z,86.60
2019-01-16T03:51:46.615Z,82.60
2019-01-16T03:52:46.602Z,86.40
2019-01-16T03:53:46.586Z,84.10
2019-01-16T03:54:46.620Z,83.50
2019-01-16T03:55:46.563Z,81.90
2019-01-16T03:56:46.561Z,81.10
2019-01-16T03:57:46.540Z,80.10
2019-01-16T03:58:46.531Z,81.00
2019-01-16T03:59:46.536Z,79.50
2019-01-16T04:00:46.530Z,79.30
2019-01-16T04:01:46.496Z,80.00
2019-01-16T04:02:46.491Z,80.70
2019-01-16T04:03:46.479Z,79.70
2019-01-16T04:04:46.476Z,78.10
2019-01-16T04:05:46.451Z,79.40
2019-01-16T04:06:46.452Z,77.00
2019-01-16T04:07:46.430Z,77.10
2019-01-16T04:08:46.422Z,77.10
2019-01-16T04:09:46.424Z,77.00
2019-01-16T04:10:46.393Z,76.50
2019-01-16T04:11:46.382Z,74.70
2019-01-16T04:12:46.382Z,74.30
2019-01-16T04:13:46.361Z,74.40
2019-01-16T04:14:46.379Z,74.70
2019-01-16T04:15:46.336Z,74.80
2019-01-16T04:16:46.325Z,74.70
2019-01-16T04:17:46.315Z,72.80
2019-01-16T04:18:46.311Z,71.90
2019-01-16T04:19:46.298Z,71.50
2019-01-16T04:20:46.303Z,69.60
2019-01-16T04:21:46.319Z,71.80
2019-01-16T04:22:46.262Z,70.00
2019-01-16T04:23:46.247Z,69.20
2019-01-16T04:24:46.245Z,68.10
2019-01-16T04:25:46.332Z,69.20
2019-01-16T04:26:46.213Z,68.60
2019-01-16T04:27:46.203Z,67.40
2019-01-16T04:28:46.192Z,68.10
2019-01-16T04:29:46.181Z,67.50
2019-01-16T04:30:46.212Z,66.80
2019-01-16T04:31:46.159Z,67.50
2019-01-16T04:32:46.150Z,67.10
2019-01-16T04:33:46.143Z,65.80
2019-01-16T04:34:46.123Z,65.80
2019-01-16T04:35:46.130Z,64.90
2019-01-16T04:36:46.112Z,65.20
2019-01-16T04:37:46.097Z,64.80
2019-01-16T04:38:46.082Z,65.00
2019-01-16T04:39:46.074Z,64.20
2019-01-16T04:40:46.074Z,65.30
2019-01-16T04:41:46.056Z,64.40
2019-01-16T04:42:46.042Z,63.70
2019-01-16T04:43:46.030Z,63.70
2019-01-16T04:44:46.016Z,62.60
2019-01-16T04:45:46.033Z,61.30
2019-01-16T04:46:45.989Z,63.60
2019-01-16T04:47:45.979Z,62.70
2019-01-16T04:48:45.975Z,62.40
2019-01-16T04:49:45.956Z,61.10
2019-01-16T04:50:45.952Z,63.30
2019-01-16T04:51:45.948Z,61.90
2019-01-16T04:52:45.921Z,60.90
2019-01-16T04:53:45.912Z,61.30
2019-01-16T04:54:45.909Z,59.60
2019-01-16T04:55:45.946Z,59.70
2019-01-16T04:56:45.912Z,59.00
2019-01-16T04:57:45.868Z,59.90
2019-01-16T04:58:45.861Z,58.50
2019-01-16T04:59:45.845Z,57.60
2019-01-16T05:00:45.848Z,58.30
2019-01-16T05:01:45.823Z,57.20
2019-01-16T05:02:45.833Z,58.00
2019-01-16T05:03:45.800Z,57.30
2019-01-16T05:04:45.786Z,57.80
2019-01-16T05:05:45.783Z,57.20
2019-01-16T05:06:45.779Z,56.20
2019-01-16T05:07:45.769Z,55.80
2019-01-16T05:08:45.748Z,56.70
2019-01-16T05:09:45.732Z,54.60
2019-01-16T05:10:45.727Z,57.50
2019-01-16T05:11:45.709Z,53.90
2019-01-16T05:12:45.730Z,55.80
2019-01-16T05:13:45.687Z,53.30
2019-01-16T05:14:45.686Z,54.10
2019-01-16T05:15:45.670Z,54.70
2019-01-16T05:16:45.659Z,53.00
2019-01-16T05:17:45.936Z,53.10
2019-01-16T05:18:45.641Z,52.50
2019-01-16T05:19:45.627Z,52.70
2019-01-16T05:20:45.611Z,52.70
2019-01-16T05:21:45.600Z,51.20
2019-01-16T05:22:45.585Z,52.90
2019-01-16T05:23:45.590Z,51.00
2019-01-16T05:24:45.576Z,51.20
2019-01-16T05:25:45.554Z,52.20
2019-01-16T05:26:45.541Z,50.50
2019-01-16T05:27:45.529Z,49.40
2019-01-16T05:28:45.537Z,50.70
2019-01-16T05:29:45.511Z,49.90
2019-01-16T05:30:45.511Z,50.20
2019-01-16T05:31:45.492Z,48.60
2019-01-16T05:32:45.475Z,48.60
2019-01-16T05:33:45.479Z,49.00
2019-01-16T05:34:45.457Z,49.80
2019-01-16T05:35:45.441Z,49.50
2019-01-16T05:36:45.448Z,48.40
2019-01-16T05:37:45.418Z,47.40
2019-01-16T05:38:45.446Z,48.80
2019-01-16T05:39:45.398Z,48.80
2019-01-16T05:40:45.387Z,48.40
2019-01-16T05:41:45.392Z,48.10
2019-01-16T05:42:45.377Z,48.30
2019-01-16T05:43:45.353Z,48.00
2019-01-16T05:44:45.374Z,48.50
2019-01-16T05:45:45.336Z,48.10
2019-01-16T05:46:45.318Z,47.30
2019-01-16T05:47:45.318Z,46.80
2019-01-16T05:48:45.297Z,46.30
2019-01-16T05:49:46.714Z,46.30
2019-01-16T05:50:45.281Z,46.90
2019-01-16T05:51:45.266Z,45.60
2019-01-16T05:52:45.257Z,47.10
2019-01-16T05:53:45.250Z,45.90
2019-01-16T05:54:45.245Z,45.20
2019-01-16T05:55:45.217Z,48.00
2019-01-16T05:56:45.209Z,47.50
2019-01-16T05:57:45.194Z,46.70
2019-01-16T05:58:45.194Z,47.80
2019-01-16T05:59:45.195Z,45.30
2019-01-16T06:00:45.163Z,43.50
2019-01-16T06:01:45.149Z,45.20
2019-01-16T06:02:45.141Z,45.70
2019-01-16T06:03:45.133Z,44.40
2019-01-16T06:04:45.149Z,46.00
2019-01-16T06:05:45.107Z,44.00
2019-01-16T06:06:45.100Z,43.90
2019-01-16T06:07:45.089Z,42.70
2019-01-16T06:08:45.071Z,44.90
2019-01-16T06:09:45.086Z,43.40
2019-01-16T06:10:45.069Z,44.20
2019-01-16T06:11:45.047Z,43.20
2019-01-16T06:12:45.054Z,43.30
2019-01-16T06:13:45.020Z,44.70
2019-01-16T06:14:45.041Z,43.30
2019-01-16T06:15:45.012Z,41.60
2019-01-16T06:16:44.980Z,40.80
2019-01-16T06:17:44.970Z,41.10
2019-01-16T06:18:44.978Z,42.20
2019-01-16T06:19:44.952Z,40.00
2019-01-16T06:20:44.961Z,40.50
2019-01-16T06:21:44.930Z,40.10
2019-01-16T06:22:44.911Z,40.20
2019-01-16T06:23:44.916Z,40.00
2019-01-16T06:24:44.898Z,40.10
2019-01-16T06:25:44.906Z,39.10
2019-01-16T06:26:44.875Z,40.40
2019-01-16T06:27:44.856Z,39.30
2019-01-16T06:28:44.850Z,38.80
2019-01-16T06:29:44.833Z,40.10
2019-01-16T06:30:44.836Z,39.20
2019-01-16T06:31:44.816Z,38.40
2019-01-16T06:32:44.804Z,39.10
2019-01-16T06:33:44.792Z,37.50
2019-01-16T06:34:44.778Z,37.70
2019-01-16T06:35:44.814Z,38.80
2019-01-16T06:36:44.753Z,38.40
2019-01-16T06:37:44.750Z,37.50
2019-01-16T06:38:44.798Z,38.20
2019-01-16T06:39:44.719Z,37.10
2019-01-16T06:40:44.710Z,37.60
2019-01-16T06:41:44.725Z,37.30
2019-01-16T06:42:44.683Z,37.20
2019-01-16T06:43:44.682Z,38.00
2019-01-16T06:44:44.674Z,36.70
2019-01-16T06:45:44.705Z,37.40
2019-01-16T06:46:44.663Z,36.70
2019-01-16T06:47:44.636Z,36.70
2019-01-16T06:48:44.618Z,37.40
2019-01-16T06:49:44.612Z,35.70
2019-01-16T06:50:44.610Z,36.60
2019-01-16T06:51:44.604Z,35.30
2019-01-16T06:52:44.580Z,35.50
2019-01-16T06:53:44.559Z,35.90
2019-01-16T06:54:44.561Z,36.00
2019-01-16T06:55:44.537Z,35.70
2019-01-16T06:56:44.556Z,35.90
2019-01-16T06:57:44.542Z,35.40
2019-01-16T06:58:44.511Z,35.70
2019-01-16T06:59:44.490Z,35.30
2019-01-16T07:00:44.499Z,34.50
2019-01-16T07:01:44.468Z,35.20
2019-01-16T07:02:44.480Z,34.30
2019-01-16T07:03:44.445Z,35.80
2019-01-16T07:04:44.433Z,33.40
2019-01-16T07:05:44.428Z,33.80
2019-01-16T07:06:44.411Z,34.00
2019-01-16T07:07:44.421Z,33.40
2019-01-16T07:08:44.397Z,34.60
2019-01-16T07:09:44.383Z,33.10
2019-01-16T07:10:44.364Z,34.30
2019-01-16T07:11:44.364Z,33.30
2019-01-16T07:12:44.358Z,34.10
2019-01-16T07:13:44.331Z,33.80
2019-01-16T07:14:44.322Z,33.10
2019-01-16T07:15:44.316Z,32.40
2019-01-16T07:16:44.304Z,32.20
2019-01-16T07:17:44.320Z,32.40
2019-01-16T07:18:44.274Z,32.20
2019-01-16T07:19:44.268Z,32.40
2019-01-16T07:20:44.252Z,32.90
2019-01-16T07:21:44.240Z,32.40
2019-01-16T07:22:44.245Z,32.00
2019-01-16T07:23:44.226Z,31.80
2019-01-16T07:24:44.274Z,31.60
2019-01-16T07:25:44.196Z,32.40
2019-01-16T07:26:44.192Z,32.70
2019-01-16T07:27:44.191Z,32.10
2019-01-16T07:28:44.160Z,30.60
2019-01-16T07:29:44.164Z,32.30
2019-01-16T07:30:44.146Z,30.90
2019-01-16T07:31:44.130Z,31.10
2019-01-16T07:32:44.145Z,31.10
2019-01-16T07:33:44.106Z,31.30
2019-01-16T07:34:44.094Z,30.70
2019-01-16T07:35:44.095Z,30.40
2019-01-16T07:36:44.072Z,31.20
2019-01-16T07:37:44.063Z,30.50
2019-01-16T07:38:44.067Z,30.30
2019-01-16T07:39:44.038Z,31.00
2019-01-16T07:40:44.032Z,29.50
2019-01-16T07:41:44.029Z,30.60
2019-01-16T07:42:47.023Z,31.20
2019-01-16T07:43:44.008Z,30.50
2019-01-16T07:44:43.992Z,30.40
2019-01-16T07:45:43.971Z,30.30
2019-01-16T07:46:43.967Z,30.50
2019-01-16T07:47:43.957Z,30.10
2019-01-16T07:48:43.961Z,29.60
2019-01-16T07:49:43.926Z,29.30
2019-01-16T07:50:43.916Z,29.50
2019-01-16T07:51:43.905Z,29.10
2019-01-16T07:52:43.892Z,29.30
2019-01-16T07:53:43.911Z,29.90
2019-01-16T07:54:43.871Z,29.10
2019-01-16T07:55:43.859Z,29.00
2019-01-16T07:56:43.853Z,28.10
2019-01-16T07:57:43.836Z,28.40
2019-01-16T07:58:43.842Z,28.70
2019-01-16T07:59:43.822Z,28.20
2019-01-16T08:00:43.811Z,28.60
2019-01-16T08:01:43.799Z,27.70
2019-01-16T08:02:43.781Z,28.00
2019-01-16T08:03:43.785Z,28.10
2019-01-16T08:04:43.763Z,28.50
2019-01-16T08:05:43.755Z,28.10
2019-01-16T08:06:43.742Z,27.00
2019-01-16T08:07:43.728Z,27.70
2019-01-16T08:08:43.736Z,27.90
2019-01-16T08:09:43.705Z,27.50
2019-01-16T08:10:43.693Z,28.30
2019-01-16T08:11:43.688Z,28.60
2019-01-16T08:12:43.678Z,26.40
2019-01-16T08:13:43.676Z,27.10
2019-01-16T08:14:43.654Z,26.80
2019-01-16T08:15:43.637Z,26.90
2019-01-16T08:16:43.629Z,26.20
2019-01-16T08:17:43.637Z,26.90
2019-01-16T08:18:43.648Z,26.30
2019-01-16T08:19:43.595Z,26.50
2019-01-16T08:20:43.587Z,26.60
2019-01-16T08:21:43.577Z,25.40
2019-01-16T08:22:43.558Z,26.30
2019-01-16T08:23:43.556Z,26.70
2019-01-16T08:24:43.551Z,26.20
2019-01-16T08:25:43.524Z,26.30
2019-01-16T08:26:43.519Z,26.40
2019-01-16T08:27:43.503Z,25.40
2019-01-16T08:28:43.493Z,26.00
2019-01-16T08:29:43.512Z,25.40
2019-01-16T08:30:43.475Z,25.90
2019-01-16T08:31:43.457Z,25.50
2019-01-16T08:32:43.445Z,25.50
2019-01-16T08:33:43.436Z,25.40
2019-01-16T08:34:43.439Z,25.30
2019-01-16T08:35:43.428Z,25.10
2019-01-16T08:36:43.403Z,24.70
2019-01-16T08:37:43.391Z,24.50
2019-01-16T08:38:43.379Z,25.00
2019-01-16T08:39:43.385Z,24.90
2019-01-16T08:40:43.360Z,25.50
2019-01-16T08:41:43.352Z,25.10
2019-01-16T08:42:43.341Z,24.90
2019-01-16T08:43:43.324Z,24.20
2019-01-16T08:44:43.336Z,24.20
2019-01-16T08:45:43.301Z,24.30
2019-01-16T08:46:43.295Z,21.60
2019-01-16T08:47:43.290Z,19.40
2019-01-16T08:48:43.319Z,14.40
2019-01-16T08:49:43.290Z,13.40
2019-01-16T08:50:43.322Z,16.90
2019-01-16T08:51:43.244Z,12.70
2019-01-16T08:52:43.230Z,13.40
2019-01-16T08:53:43.212Z,13.20
2019-01-16T08:54:43.223Z,11.60
2019-01-16T08:55:43.191Z,10.10
2019-01-16T08:56:43.178Z,10.20
2019-01-16T08:57:43.167Z,10.10
2019-01-16T08:58:43.157Z,9.60
2019-01-16T08:59:43.184Z,10.20
2019-01-16T09:00:43.151Z,9.10
2019-01-16T09:01:43.125Z,8.90
2019-01-16T09:02:43.112Z,8.40
2019-01-16T09:03:43.101Z,8.00
2019-01-16T09:04:43.088Z,7.50
2019-01-16T09:05:43.100Z,7.50
2019-01-16T09:06:43.077Z,9.70
2019-01-16T09:07:43.064Z,15.10
2019-01-16T09:08:43.045Z,18.50
2019-01-16T09:09:43.036Z,26.20
2019-01-16T09:10:43.068Z,21.20
2019-01-16T09:11:43.200Z,20.10
2019-01-16T09:12:43.007Z,14.70
2019-01-16T09:13:42.990Z,15.80
2019-01-16T09:14:42.981Z,18.90
2019-01-16T09:15:42.976Z,17.80
2019-01-16T09:16:42.977Z,15.80
2019-01-16T09:17:42.949Z,15.70
2019-01-16T09:18:42.933Z,15.40
2019-01-16T09:19:42.923Z,17.70
2019-01-16T09:20:42.920Z,16.80
2019-01-16T09:21:42.923Z,16.30
2019-01-16T09:22:42.897Z,15.90
2019-01-16T09:23:42.884Z,24.30
2019-01-16T09:24:42.867Z,15.60
2019-01-16T09:25:42.858Z,12.70
2019-01-16T09:26:42.877Z,11.90
2019-01-16T09:27:42.836Z,14.00
2019-01-16T09:28:42.823Z,13.10
2019-01-16T09:29:42.815Z,15.90
2019-01-16T09:30:42.801Z,14.00
2019-01-16T09:31:42.812Z,12.40
2019-01-16T09:32:42.794Z,11.80
2019-01-16T09:33:42.770Z,10.20
2019-01-16T09:34:42.756Z,13.10
2019-01-16T09:35:42.755Z,10.60
2019-01-16T09:36:42.749Z,12.10
2019-01-16T09:37:42.723Z,11.50
2019-01-16T09:38:42.727Z,9.10
2019-01-16T09:39:42.701Z,11.10
2019-01-16T09:40:42.689Z,10.60
2019-01-16T09:41:42.713Z,8.90
2019-01-16T09:42:42.678Z,9.30
2019-01-16T09:43:42.658Z,7.20
2019-01-16T09:44:42.658Z,8.80
2019-01-16T09:45:42.636Z,9.90
2019-01-16T09:46:42.626Z,9.40
2019-01-16T09:47:42.636Z,8.50
2019-01-16T09:48:42.611Z,7.60
2019-01-16T09:49:42.591Z,7.70
2019-01-16T09:50:47.797Z,7.20
2019-01-16T09:51:43.573Z,7.40
2019-01-16T09:52:42.581Z,5.80
2019-01-16T09:53:42.546Z,9.90
2019-01-16T09:54:42.536Z,7.00
2019-01-16T09:55:42.528Z,8.10
2019-01-16T09:56:42.530Z,6.90
2019-01-16T09:57:42.541Z,7.90
2019-01-16T09:58:42.492Z,7.00
2019-01-16T09:59:42.488Z,6.40
2019-01-16T10:00:42.477Z,6.40
2019-01-16T10:01:42.460Z,8.90
2019-01-16T10:02:42.456Z,5.70
2019-01-16T10:03:42.455Z,7.60
2019-01-16T10:04:42.438Z,5.70
2019-01-16T10:05:42.416Z,7.40
2019-01-16T10:06:42.413Z,7.10
2019-01-16T10:07:42.398Z,6.10
2019-01-16T10:08:42.418Z,6.90
2019-01-16T10:09:42.377Z,8.90
2019-01-16T10:10:42.363Z,5.30
2019-01-16T10:11:42.358Z,7.60
2019-01-16T10:12:42.338Z,6.90
2019-01-16T10:13:42.343Z,5.10
2019-01-16T10:14:42.317Z,4.50
2019-01-16T10:15:42.319Z,7.20
2019-01-16T10:16:42.299Z,5.70
2019-01-16T10:17:42.284Z,4.10
2019-01-16T10:18:42.287Z,5.50
2019-01-16T10:19:42.271Z,5.80
2019-01-16T10:20:46.307Z,4.90
2019-01-16T10:21:42.244Z,5.50
2019-01-16T10:22:42.228Z,5.90
2019-01-16T10:23:42.288Z,6.50
2019-01-16T10:24:42.211Z,4.20
2019-01-16T10:25:42.202Z,5.90
2019-01-16T10:26:42.185Z,5.90
2019-01-16T10:27:42.184Z,9.70
2019-01-16T10:28:42.198Z,5.40
2019-01-16T10:29:42.161Z,7.30
2019-01-16T10:30:42.146Z,4.50
2019-01-16T10:31:42.194Z,4.10
2019-01-16T10:32:42.120Z,5.10
2019-01-16T10:33:42.109Z,6.20
2019-01-16T10:34:42.110Z,4.80
2019-01-16T10:35:42.085Z,5.20
2019-01-16T10:36:42.089Z,5.20
2019-01-16T10:37:42.066Z,5.00
2019-01-16T10:38:42.053Z,5.80
2019-01-16T10:39:42.067Z,5.60
2019-01-16T10:40:42.031Z,5.20
2019-01-16T10:41:42.024Z,4.60
2019-01-16T10:42:42.018Z,4.70
2019-01-16T10:43:41.998Z,3.90
2019-01-16T10:44:42.004Z,5.70
2019-01-16T10:45:41.987Z,4.10
2019-01-16T10:46:41.968Z,3.90
2019-01-16T10:47:41.955Z,4.10
2019-01-16T10:48:49.545Z,6.00
2019-01-16T10:49:42.963Z,3.60
2019-01-16T10:50:41.928Z,4.30
2019-01-16T10:51:41.911Z,4.90
2019-01-16T10:52:41.901Z,4.10
2019-01-16T10:53:41.903Z,4.10
2019-01-16T10:54:41.880Z,3.90
2019-01-16T10:55:41.890Z,3.50
2019-01-16T10:56:41.882Z,3.50
2019-01-16T10:57:41.849Z,3.90
2019-01-16T10:58:41.842Z,3.00
2019-01-16T10:59:41.825Z,3.60
2019-01-16T11:00:41.837Z,3.10
2019-01-16T11:01:41.812Z,5.40
2019-01-16T11:02:41.809Z,4.00
2019-01-16T11:03:41.789Z,3.90
2019-01-16T11:04:41.770Z,3.10
2019-01-16T11:05:41.783Z,3.40
2019-01-16T11:06:41.755Z,4.00
2019-01-16T11:07:41.738Z,3.00
2019-01-16T11:08:41.738Z,4.00
2019-01-16T11:09:41.717Z,3.50
2019-01-16T11:10:41.726Z,4.40
2019-01-16T11:11:41.695Z,3.60
2019-01-16T11:12:41.682Z,4.30
2019-01-16T11:13:41.678Z,3.70
2019-01-16T11:14:41.663Z,3.20
2019-01-16T11:15:41.673Z,4.70
2019-01-16T11:16:41.643Z,3.70
2019-01-16T11:17:41.627Z,3.80
2019-01-16T11:18:41.615Z,4.20
2019-01-16T11:19:41.606Z,4.40
2019-01-16T11:20:41.610Z,3.40
2019-01-16T11:21:41.591Z,4.00
2019-01-16T11:22:41.570Z,3.60
2019-01-16T11:23:41.559Z,4.20
2019-01-16T11:24:41.549Z,3.10
2019-01-16T11:25:41.571Z,4.10
2019-01-16T11:26:41.549Z,3.30
2019-01-16T11:27:41.523Z,3.60
2019-01-16T11:28:41.503Z,4.10
2019-01-16T11:29:41.491Z,3.60
2019-01-16T11:30:41.480Z,8.50
2019-01-16T11:31:41.487Z,4.80
2019-01-16T11:32:41.465Z,7.10
2019-01-16T11:33:41.454Z,6.20
2019-01-16T11:34:41.437Z,5.30
2019-01-16T11:35:41.433Z,8.00
2019-01-16T11:36:41.428Z,6.40
2019-01-16T11:37:41.403Z,9.50
2019-01-16T11:38:41.399Z,7.90
2019-01-16T11:39:41.396Z,6.00
2019-01-16T11:40:41.368Z,9.30
2019-01-16T11:41:41.375Z,8.50
2019-01-16T11:42:41.353Z,9.80
2019-01-16T11:43:41.351Z,10.60
2019-01-16T11:44:41.325Z,6.90
2019-01-16T11:45:41.323Z,9.50
2019-01-16T11:46:41.326Z,9.40
2019-01-16T11:47:41.300Z,7.90
2019-01-16T11:48:41.283Z,10.10
2019-01-16T11:49:41.295Z,8.50
2019-01-16T11:50:41.261Z,8.10
2019-01-16T11:51:41.299Z,8.90
2019-01-16T11:52:41.246Z,11.10
2019-01-16T11:53:41.228Z,9.30
2019-01-16T11:54:41.217Z,10.30
2019-01-16T11:55:41.209Z,10.30
2019-01-16T11:56:41.199Z,10.00
2019-01-16T11:57:41.215Z,10.90
2019-01-16T11:58:41.178Z,9.80
2019-01-16T11:59:41.164Z,9.70
2019-01-16T12:00:41.151Z,11.00
2019-01-16T12:01:41.139Z,10.10
2019-01-16T12:02:41.144Z,11.40
2019-01-16T12:03:41.133Z,10.60
2019-01-16T12:04:41.110Z,9.60
2019-01-16T12:05:41.101Z,12.50
2019-01-16T12:06:41.083Z,7.90
2019-01-16T12:07:41.089Z,10.00
2019-01-16T12:08:41.060Z,11.20
2019-01-16T12:09:41.066Z,11.00
2019-01-16T12:10:41.044Z,10.80
2019-01-16T12:11:41.034Z,10.70
2019-01-16T12:12:41.034Z,10.90
2019-01-16T12:13:41.008Z,10.30
2019-01-16T12:14:41.001Z,9.60
2019-01-16T12:15:40.991Z,10.10
2019-01-16T12:16:40.988Z,12.60
2019-01-16T12:17:40.984Z,9.20
2019-01-16T12:18:40.953Z,13.70
2019-01-16T12:19:40.941Z,11.90
2019-01-16T12:20:40.930Z,11.40
2019-01-16T12:21:40.922Z,10.00
2019-01-16T12:22:40.932Z,10.70
2019-01-16T12:23:40.900Z,12.60
2019-01-16T12:24:40.886Z,9.30
2019-01-16T12:25:40.883Z,12.70
2019-01-16T12:26:40.871Z,13.30
2019-01-16T12:27:40.875Z,11.60
2019-01-16T12:28:40.850Z,11.40
2019-01-16T12:29:40.832Z,9.40
2019-01-16T12:30:40.822Z,10.10
2019-01-16T12:31:40.815Z,13.50
2019-01-16T12:32:40.815Z,11.60
2019-01-16T12:33:40.795Z,10.30
2019-01-16T12:34:40.789Z,10.20
2019-01-16T12:35:40.767Z,9.40
2019-01-16T12:36:40.763Z,10.30
2019-01-16T12:37:40.768Z,10.00
2019-01-16T12:38:40.743Z,11.60
2019-01-16T12:39:40.723Z,10.40
2019-01-16T12:40:40.722Z,9.60
2019-01-16T12:41:40.703Z,11.60
2019-01-16T12:42:40.707Z,10.90
2019-01-16T12:43:40.680Z,8.30
2019-01-16T12:44:40.669Z,11.80
2019-01-16T12:45:40.658Z,11.50
2019-01-16T12:46:40.658Z,10.20
2019-01-16T12:47:40.636Z,10.10
2019-01-16T12:48:40.670Z,9.60
2019-01-16T12:49:40.628Z,9.70
2019-01-16T12:50:40.603Z,10.30
2019-01-16T12:51:40.591Z,8.70